Time;durP1;ratioP1;P1;durP2;ratioP2;P2;SDS_P1;SDS_P2;PMS_P1;PMS_P2;Temp;Humidity;BMP_temperature;BMP_pressure;BME280_temperature;BME280_humidity;BME280_pressure;Samples;Min_cycle;Max_cycle;Signal;HPM_P1;HPM_P2
2022/10/13 00:01:32;;;;;;;;;62.25;49.50;;;;;21.18;53.92;100004.00;5066147;28;8863;-77
2022/10/13 00:04:00;;;;;;;;;65.25;50.25;;;;;21.20;53.91;100001.31;5046840;28;8853;-77
2022/10/13 00:06:31;;;;;;;;;61.00;50.00;;;;;21.24;53.75;100008.22;5047682;28;8860;-76
2022/10/13 00:09:00;;;;;;;;;59.75;48.75;;;;;21.27;53.59;100004.59;5047526;28;8952;-75
2022/10/13 00:11:30;;;;;;;;;58.50;48.25;;;;;21.32;53.46;100010.59;5048616;28;8861;-76
2022/10/13 00:14:01;;;;;;;;;65.50;50.25;;;;;21.11;54.50;100009.59;5048801;28;8876;-80
2022/10/13 00:16:32;;;;;;;;;61.25;49.75;;;;;21.13;54.35;100010.41;5048662;28;8841;-77
2022/10/13 00:19:01;;;;;;;;;61.25;47.50;;;;;21.18;54.27;100009.31;5046939;28;8876;-79
2022/10/13 00:21:31;;;;;;;;;62.00;49.00;;;;;21.26;54.14;100014.34;5047948;28;8869;-76
2022/10/13 00:24:00;;;;;;;;;61.75;48.00;;;;;21.31;54.05;100006.22;4992545;28;8887;-76
2022/10/13 00:26:29;;;;;;;;;62.00;49.25;;;;;21.34;53.94;100001.66;4986315;28;8865;-76
2022/10/13 00:28:58;;;;;;;;;57.50;47.00;;;;;21.35;53.98;100003.38;5002934;28;8963;-77
2022/10/13 00:31:29;;;;;;;;;60.50;47.75;;;;;21.35;53.74;100008.69;5005912;28;8854;-78
2022/10/13 00:33:59;;;;;;;;;57.00;46.50;;;;;21.40;53.78;100003.22;4990028;28;8862;-78
2022/10/13 00:36:29;;;;;;;;;60.00;48.50;;;;;21.41;53.44;99996.97;5006028;28;8955;-75
2022/10/13 00:38:59;;;;;;;;;63.25;49.00;;;;;21.42;53.54;100004.88;4985400;28;8879;-76
2022/10/13 00:41:28;;;;;;;;;62.25;49.50;;;;;21.46;53.40;99994.19;4985926;28;8857;-76
2022/10/13 00:44:00;;;;;;;;;59.50;48.00;;;;;21.47;53.40;99991.47;4986518;28;8868;-76
2022/10/13 00:46:30;;;;;;;;;62.25;50.00;;;;;21.49;53.33;99986.97;4984408;28;8891;-77
2022/10/13 00:49:04;;;;;;;;;62.25;49.50;;;;;21.49;53.22;99992.25;4968531;28;8865;-76
2022/10/13 00:51:39;;;;;;;;;61.00;48.50;;;;;21.48;53.38;99993.22;4984343;28;8983;-76
2022/10/13 00:54:14;;;;;;;;;64.50;51.25;;;;;21.48;53.39;99982.59;4971572;28;8853;-77
2022/10/13 00:56:44;;;;;;;;;60.00;48.00;;;;;21.47;53.33;99990.59;5026461;28;8879;-77
2022/10/13 00:59:21;;;;;;;;;59.50;49.00;;;;;21.43;53.48;99984.50;5026725;28;8855;-79
2022/10/13 01:01:51;;;;;;;;;58.50;48.25;;;;;21.40;53.70;99976.69;5025175;28;8892;-77
2022/10/13 01:04:23;;;;;;;;;58.50;48.25;;;;;21.28;54.30;99978.00;4991878;28;8902;-77
2022/10/13 01:06:53;;;;;;;;;63.75;51.00;;;;;20.99;55.71;99974.66;5026811;28;8966;-76
2022/10/13 01:09:23;;;;;;;;;63.75;50.75;;;;;20.94;56.09;99971.28;5026162;28;8863;-77
2022/10/13 01:12:05;;;;;;;;;70.00;54.25;;;;;21.03;55.96;99976.25;5027217;28;8872;-76
2022/10/13 01:14:44;;;;;;;;;72.67;57.00;;;;;21.02;56.29;99971.91;5027966;28;8899;-76
2022/10/13 01:17:29;;;;;;;;;67.67;53.33;;;;;21.10;56.18;99970.75;5029243;28;9091;-76
2022/10/13 01:20:22;;;;;;;;;70.00;53.67;;;;;21.15;55.97;99967.00;5031511;28;8949;-76
2022/10/13 01:23:07;;;;;;;;;68.67;55.00;;;;;21.14;55.96;99977.66;5012837;28;8951;-75
2022/10/13 01:25:59;;;;;;;;;69.67;57.00;;;;;21.16;55.94;99974.03;5050886;28;9099;-76
2022/10/13 01:28:51;;;;;;;;;65.00;53.00;;;;;21.16;56.36;99973.16;5050414;28;9216;-77
2022/10/13 01:31:28;;;;;;;;;69.00;54.33;;;;;21.12;56.33;99971.56;5049792;28;9295;-76
2022/10/13 01:34:03;;;;;;;;;67.33;54.00;;;;;21.08;55.91;99977.88;5051692;28;9283;-75
2022/10/13 01:36:38;;;;;;;;;69.00;55.00;;;;;21.07;56.14;99976.16;5049974;28;8978;-75
2022/10/13 01:39:14;;;;;;;;;71.67;58.67;;;;;21.06;56.29;99970.00;5051489;28;8951;-77
2022/10/13 01:41:50;;;;;;;;;64.67;53.00;;;;;21.08;56.05;99969.91;5049659;28;9448;-75
2022/10/13 01:44:25;;;;;;;;;67.33;53.67;;;;;21.05;56.23;99970.06;5051739;28;8975;-76
2022/10/13 01:46:55;;;;;;;;;70.00;57.00;;;;;20.69;58.14;99975.75;5015113;28;9176;-78
2022/10/13 01:49:29;;;;;;;;;73.25;62.50;;;;;20.56;58.53;99976.13;5045504;28;9371;-76
2022/10/13 01:52:02;;;;;;;;;70.00;55.67;;;;;20.43;58.63;99973.06;5046076;28;9502;-75
2022/10/13 01:54:32;;;;;;;;;69.67;57.33;;;;;20.31;59.10;99973.47;5027922;28;9289;-76
2022/10/13 01:57:01;;;;;;;;;67.33;54.67;;;;;20.33;58.85;99966.34;5028152;28;9104;-76
2022/10/13 01:59:35;;;;;;;;;74.00;61.00;;;;;20.47;58.47;99963.22;5040183;28;9149;-77
2022/10/13 02:02:16;;;;;;;;;71.67;58.33;;;;;20.66;58.36;99965.25;5037618;28;9123;-75
2022/10/13 02:04:55;;;;;;;;;72.00;58.67;;;;;20.75;58.15;99960.47;5037132;28;9193;-77
2022/10/13 02:07:31;;;;;;;;;73.00;60.00;;;;;20.83;57.87;99965.50;5027782;28;9288;-77
2022/10/13 02:10:05;;;;;;;;;71.33;58.00;;;;;20.82;57.86;99966.44;5010529;28;9267;-76
2022/10/13 02:12:46;;;;;;;;;71.00;55.33;;;;;20.86;57.80;99967.22;5013568;28;9418;-78
2022/10/13 02:15:19;;;;;;;;;73.00;59.33;;;;;20.82;57.90;99962.00;5019314;28;9360;-77
2022/10/13 02:17:51;;;;;;;;;71.00;58.33;;;;;20.78;58.01;99964.84;5034204;28;9348;-75
2022/10/13 02:20:20;;;;;;;;;73.00;57.67;;;;;20.79;57.80;99962.13;5027145;28;9514;-77
2022/10/13 02:22:56;;;;;;;;;71.00;58.75;;;;;20.74;58.26;99956.13;5027459;28;9286;-77
2022/10/13 02:25:25;;;;;;;;;69.67;56.00;;;;;20.66;58.41;99954.66;5015087;28;9495;-77
2022/10/13 02:27:57;;;;;;;;;69.33;56.00;;;;;20.63;58.67;99956.50;5028342;28;9426;-77
2022/10/13 02:30:32;;;;;;;;;71.00;55.67;;;;;20.61;58.73;99957.47;5016435;28;9314;-76
2022/10/13 02:33:03;;;;;;;;;74.67;61.67;;;;;20.52;59.07;99965.72;5028234;28;9409;-77
2022/10/13 02:35:31;;;;;;;;;72.67;60.33;;;;;20.47;58.97;99959.69;5027980;28;10224;-77
2022/10/13 02:38:02;;;;;;;;;70.67;56.67;;;;;20.47;58.75;99960.56;5029315;28;9400;-78
2022/10/13 02:40:30;;;;;;;;;71.33;58.67;;;;;20.51;58.90;99954.25;5029351;28;9340;-76
2022/10/13 02:42:59;;;;;;;;;69.33;56.67;;;;;20.59;58.78;99957.50;5029151;28;9351;-76
2022/10/13 02:45:28;;;;;;;;;71.67;58.33;;;;;20.66;58.63;99952.00;5029485;28;9485;-77
2022/10/13 02:47:57;;;;;;;;;72.50;59.00;;;;;20.70;58.39;99945.66;5054292;28;10089;-76
2022/10/13 02:50:27;;;;;;;;;71.00;59.33;;;;;20.68;58.43;99947.50;5050360;28;9423;-76
2022/10/13 02:52:57;;;;;;;;;69.00;56.00;;;;;20.70;57.97;99950.97;5015372;28;9509;-78
2022/10/13 02:55:25;;;;;;;;;72.67;60.00;;;;;20.70;58.19;99945.66;5050199;28;9276;-77
2022/10/13 02:57:57;;;;;;;;;69.67;54.00;;;;;20.72;58.28;99949.13;5032532;28;9316;-77
2022/10/13 03:00:26;;;;;;;;;67.33;53.33;;;;;20.72;58.34;99946.47;5050430;28;9243;-76
2022/10/13 03:02:54;;;;;;;;;73.00;57.67;;;;;20.74;58.27;99953.47;4997226;28;9441;-75
2022/10/13 03:05:23;;;;;;;;;72.33;57.33;;;;;20.76;57.98;99948.97;5015189;28;9329;-77
2022/10/13 03:07:53;;;;;;;;;74.33;63.67;;;;;20.75;58.19;99949.03;5047960;28;9246;-75
2022/10/13 03:10:21;;;;;;;;;71.33;60.00;;;;;20.78;58.04;99949.78;5032427;28;9400;-75
2022/10/13 03:12:53;;;;;;;;;69.33;56.00;;;;;20.77;57.97;99949.84;5050080;28;9419;-77
2022/10/13 03:15:22;;;;;;;;;72.67;60.00;;;;;20.76;58.02;99954.28;5049926;28;9386;-77
2022/10/13 03:17:55;;;;;;;;;70.00;58.00;;;;;20.76;57.77;99948.97;5048405;28;9335;-75
2022/10/13 03:20:24;;;;;;;;;68.67;54.33;;;;;20.79;57.61;99954.19;5048293;28;9224;-76
2022/10/13 03:22:54;;;;;;;;;71.67;58.00;;;;;20.78;57.70;99949.78;5049431;28;9347;-75
2022/10/13 03:25:22;;;;;;;;;70.33;56.00;;;;;20.75;57.17;99949.88;5049029;28;10027;-74
2022/10/13 03:27:52;;;;;;;;;71.00;60.00;;;;;20.73;57.58;99953.53;5048240;28;9388;-78
2022/10/13 03:30:20;;;;;;;;;72.00;60.50;;;;;20.64;58.13;99947.63;5048161;28;9369;-77
2022/10/13 03:32:49;;;;;;;;;73.25;63.75;;;;;20.38;59.17;99951.16;5049395;28;9392;-76
2022/10/13 03:35:17;;;;;;;;;73.25;61.75;;;;;19.90;60.94;99954.53;5049160;28;9860;-77
2022/10/13 03:37:46;;;;;;;;;70.00;58.33;;;;;19.85;61.13;99956.47;5047128;28;9485;-76
2022/10/13 03:40:16;;;;;;;;;64.67;52.00;;;;;19.98;60.47;99943.69;5049106;28;9328;-75
2022/10/13 03:42:44;;;;;;;;;72.33;60.00;;;;;20.11;60.14;99945.00;5049009;28;9425;-77
2022/10/13 03:45:13;;;;;;;;;71.00;57.67;;;;;20.23;59.68;99947.25;5047578;28;9390;-78
2022/10/13 03:47:42;;;;;;;;;71.33;55.33;;;;;20.30;59.20;99945.25;5048166;28;9292;-77
2022/10/13 03:50:11;;;;;;;;;74.25;64.50;;;;;20.36;59.37;99949.47;5049013;28;9416;-77
2022/10/13 03:52:39;;;;;;;;;72.00;58.00;;;;;20.43;59.12;99954.53;4996224;28;9497;-76
2022/10/13 03:55:08;;;;;;;;;78.00;69.50;;;;;20.48;58.77;99943.75;5030314;28;10332;-77
2022/10/13 03:57:38;;;;;;;;;76.00;67.00;;;;;20.48;59.05;99943.75;5049119;28;9965;-76
2022/10/13 04:00:09;;;;;;;;;72.67;63.00;;;;;20.51;58.76;99940.13;5013522;28;10163;-77
2022/10/13 04:02:40;;;;;;;;;73.50;63.50;;;;;20.53;58.61;99946.22;5049318;28;9590;-76
2022/10/13 04:05:09;;;;;;;;;74.00;60.00;;;;;20.41;59.20;99950.19;5048941;28;10411;-76
2022/10/13 04:07:37;;;;;;;;;73.67;60.00;;;;;20.41;59.19;99939.59;4997088;28;9740;-77
2022/10/13 04:10:19;;;;;;;;;70.00;56.67;;;;;20.45;58.84;99942.09;5045385;28;9481;-76
2022/10/13 04:12:51;;;;;;;;;73.67;62.67;;;;;20.41;59.13;99942.22;5027082;28;9100;-77
2022/10/13 04:15:19;;;;;;;;;72.00;58.33;;;;;20.40;59.11;99937.88;5027891;28;9328;-75
2022/10/13 04:17:48;;;;;;;;;68.33;58.00;;;;;20.43;58.97;99941.28;5028495;28;10102;-76
2022/10/13 04:20:17;;;;;;;;;73.00;60.00;;;;;20.48;58.90;99938.47;5037941;28;9090;-77
2022/10/13 04:22:46;;;;;;;;;71.67;54.00;;;;;20.51;58.67;99943.66;5010257;28;9169;-75
2022/10/13 04:25:14;;;;;;;;;72.33;61.33;;;;;20.54;58.79;99938.22;5026695;28;9204;-77
2022/10/13 04:27:43;;;;;;;;;73.50;61.50;;;;;20.23;59.82;99941.09;5042682;28;9426;-75
2022/10/13 04:30:13;;;;;;;;;73.25;61.50;;;;;19.65;61.79;99943.81;5028104;28;9547;-77
2022/10/13 04:32:42;;;;;;;;;73.00;59.25;;;;;19.28;63.08;99948.47;5029240;28;9486;-76
2022/10/13 04:35:12;;;;;;;;;75.33;63.67;;;;;18.93;64.40;99949.50;5017518;28;9498;-77
2022/10/13 04:37:40;;;;;;;;;70.67;56.67;;;;;18.54;66.07;99946.13;5040243;28;9427;-77
2022/10/13 04:40:13;;;;;;;;;72.00;58.67;;;;;18.37;66.85;99954.50;5038712;28;9372;-78
2022/10/13 04:42:41;;;;;;;;;72.33;61.00;;;;;18.18;67.45;99949.69;5037832;28;9359;-76
2022/10/13 04:45:10;;;;;;;;;72.67;59.67;;;;;17.86;69.01;99948.75;5011608;28;9329;-78
2022/10/13 04:47:43;;;;;;;;;74.67;59.67;;;;;17.61;70.17;99958.06;4990103;28;9358;-78
2022/10/13 04:50:11;;;;;;;;;68.00;54.00;;;;;17.38;71.60;99955.97;4968951;28;9761;-77
2022/10/13 04:52:40;;;;;;;;;74.00;63.00;;;;;17.29;71.96;99954.38;4986151;28;9294;-78
2022/10/13 04:55:09;;;;;;;;;74.33;63.33;;;;;17.30;72.69;99953.50;4985810;28;9428;-77
2022/10/13 04:57:37;;;;;;;;;74.50;63.25;;;;;17.44;72.05;99955.81;4999951;28;9539;-78
2022/10/13 05:00:07;;;;;;;;;73.50;56.50;;;;;17.44;72.04;99954.03;5005412;28;9556;-77
2022/10/13 05:02:36;;;;;;;;;75.33;63.00;;;;;17.32;72.42;99957.81;4973047;28;9978;-77
2022/10/13 05:05:07;;;;;;;;;71.00;57.67;;;;;17.49;71.87;99954.81;4973125;28;9520;-77
2022/10/13 05:07:36;;;;;;;;;74.33;58.33;;;;;17.68;70.70;99952.63;5005283;28;10084;-77
2022/10/13 05:10:05;;;;;;;;;78.75;69.50;;;;;17.79;70.50;99955.03;4972722;28;9381;-78
2022/10/13 05:12:34;;;;;;;;;79.00;68.00;;;;;17.78;70.35;99957.69;5043444;28;10052;-77
2022/10/13 05:15:03;;;;;;;;;73.75;63.50;;;;;18.01;69.33;99955.38;5026925;28;9727;-79
2022/10/13 05:17:31;;;;;;;;;77.33;65.33;;;;;18.30;67.91;99959.09;5037222;28;9616;-78
2022/10/13 05:20:11;;;;;;;;;29.00;22.33;;;;;18.49;67.12;99952.41;5009596;28;9348;-77
2022/10/13 05:22:39;;;;;;;;;72.00;60.00;;;;;18.68;66.25;99959.84;5027957;28;9402;-77
2022/10/13 05:25:08;;;;;;;;;77.75;67.25;;;;;18.80;65.50;99956.00;5057557;28;9428;-76
2022/10/13 05:27:37;;;;;;;;;78.00;67.00;;;;;18.94;65.08;99959.16;5047146;28;9671;-77
2022/10/13 05:30:11;;;;;;;;;75.75;65.75;;;;;19.11;64.42;99966.63;5043656;28;10460;-75
2022/10/13 05:32:39;;;;;;;;;74.67;63.33;;;;;19.21;64.04;99972.50;5042719;28;10416;-76
2022/10/13 05:35:10;;;;;;;;;74.67;61.67;;;;;19.34;63.66;99971.22;5028363;28;9517;-78
2022/10/13 05:37:41;;;;;;;;;75.00;60.33;;;;;19.39;63.25;99964.00;5044497;28;9424;-79
2022/10/13 05:40:10;;;;;;;;;75.33;63.00;;;;;19.48;62.77;99963.72;5034593;28;9421;-77
2022/10/13 05:42:39;;;;;;;;;72.33;59.33;;;;;19.56;62.57;99955.56;4995805;28;9169;-76
2022/10/13 05:45:11;;;;;;;;;79.00;69.25;;;;;19.59;62.54;99963.41;5011697;28;9284;-76
2022/10/13 05:47:40;;;;;;;;;72.33;58.67;;;;;19.60;62.36;99973.09;5043057;28;9475;-78
2022/10/13 05:50:10;;;;;;;;;74.67;61.33;;;;;19.64;62.28;99968.53;5044769;28;9236;-77
2022/10/13 05:52:42;;;;;;;;;74.00;62.33;;;;;19.71;62.20;99978.03;5044586;28;9371;-77
2022/10/13 05:55:13;;;;;;;;;76.00;65.00;;;;;19.77;61.77;99987.59;5044405;28;9416;-78
2022/10/13 05:57:48;;;;;;;;;77.00;65.67;;;;;19.80;62.16;99984.84;5044965;28;9397;-78
2022/10/13 06:00:19;;;;;;;;;77.25;66.75;;;;;19.76;62.00;99989.38;5042772;28;9690;-77
2022/10/13 06:02:53;;;;;;;;;77.50;62.75;;;;;19.84;61.87;99989.13;5050892;28;9565;-77
2022/10/13 06:05:26;;;;;;;;;78.00;71.00;;;;;19.89;61.55;99986.34;5034209;28;9713;-78
2022/10/13 06:07:57;;;;;;;;;77.00;66.50;;;;;19.96;61.54;99998.47;5059314;28;9797;-77
2022/10/13 06:10:26;;;;;;;;;77.50;66.75;;;;;20.01;61.56;99997.41;5064927;28;9502;-79
2022/10/13 06:12:54;;;;;;;;;75.67;63.33;;;;;20.05;61.33;99996.38;5047329;28;10857;-78
2022/10/13 06:15:23;;;;;;;;;75.75;68.75;;;;;20.13;60.88;99990.84;5048272;28;9548;-76
2022/10/13 06:17:57;;;;;;;;;74.50;64.25;;;;;20.23;60.72;99988.78;5047959;28;9824;-77
2022/10/13 06:20:27;;;;;;;;;77.75;68.00;;;;;20.32;60.53;99988.47;5038785;28;9641;-77
2022/10/13 06:22:56;;;;;;;;;73.75;62.25;;;;;20.39;59.95;99989.97;4997089;28;9896;-76
2022/10/13 06:25:25;;;;;;;;;80.00;72.25;;;;;20.47;59.96;99988.84;5055394;28;9870;-77
2022/10/13 06:27:53;;;;;;;;;79.00;72.25;;;;;20.57;59.58;99992.94;5010096;28;9802;-77
2022/10/13 06:30:22;;;;;;;;;77.75;69.75;;;;;20.68;59.35;99997.88;5026840;28;10121;-76
2022/10/13 06:32:50;;;;;;;;;76.25;68.00;;;;;20.76;59.27;99986.09;5041841;28;9895;-76
2022/10/13 06:35:19;;;;;;;;;77.25;69.00;;;;;20.82;58.89;99987.66;5047245;28;9722;-76
2022/10/13 06:37:49;;;;;;;;;76.50;64.00;;;;;20.94;58.47;99987.19;5046717;28;9885;-75
2022/10/13 06:40:17;;;;;;;;;76.50;64.75;;;;;20.99;58.24;99987.06;5028795;28;9874;-77
2022/10/13 06:42:49;;;;;;;;;78.50;69.00;;;;;21.15;57.93;99987.34;5005516;28;9819;-76
2022/10/13 06:45:22;;;;;;;;;76.25;69.00;;;;;21.16;57.81;99986.44;4993782;28;10939;-75
2022/10/13 06:47:53;;;;;;;;;80.00;74.00;;;;;21.30;57.74;99994.72;5030229;28;9878;-76
2022/10/13 06:50:23;;;;;;;;;77.25;72.50;;;;;21.27;57.30;99986.91;5029556;28;10069;-76
2022/10/13 06:52:55;;;;;;;;;75.50;67.75;;;;;21.35;57.39;99994.56;5026258;28;10127;-76
2022/10/13 06:55:24;;;;;;;;;76.75;67.75;;;;;21.40;56.57;99992.59;5012652;28;10186;-77
2022/10/13 06:57:52;;;;;;;;;78.50;73.00;;;;;21.41;56.73;99991.66;5030179;28;10036;-75
2022/10/13 07:00:21;;;;;;;;;76.75;65.75;;;;;21.55;56.62;99991.16;5047816;28;9880;-77
2022/10/13 07:02:51;;;;;;;;;76.00;66.75;;;;;21.66;56.63;99994.25;5039806;28;10101;-76
2022/10/13 07:05:19;;;;;;;;;79.75;70.25;;;;;21.82;56.28;99991.03;5065952;28;9913;-76
2022/10/13 07:07:51;;;;;;;;;75.75;70.00;;;;;21.79;55.72;99990.19;5063899;28;10182;-75
2022/10/13 07:10:21;;;;;;;;;74.75;66.25;;;;;21.84;55.12;99997.16;5066267;28;10190;-77
2022/10/13 07:12:50;;;;;;;;;73.50;61.75;;;;;21.95;54.57;99995.78;5057386;28;10604;-75
2022/10/13 07:15:18;;;;;;;;;72.67;62.33;;;;;22.02;54.31;99996.38;5049065;28;9777;-78
2022/10/13 07:17:50;;;;;;;;;75.75;64.00;;;;;22.12;54.38;99988.94;5066269;28;9411;-74
2022/10/13 07:20:19;;;;;;;;;73.25;64.50;;;;;22.14;54.89;99987.94;5066023;28;9457;-76
2022/10/13 07:22:48;;;;;;;;;74.00;64.25;;;;;22.11;54.67;99984.53;5049525;28;9781;-76
2022/10/13 07:25:21;;;;;;;;;77.25;70.00;;;;;22.24;54.48;99983.09;5065884;28;9984;-75
2022/10/13 07:27:50;;;;;;;;;76.50;68.00;;;;;22.29;54.26;99990.91;5049608;28;9826;-75
2022/10/13 07:30:19;;;;;;;;;77.00;64.50;;;;;22.45;53.69;99978.69;5049316;28;9931;-79
2022/10/13 07:32:48;;;;;;;;;77.75;71.50;;;;;22.53;53.48;99976.59;5016966;28;9833;-74
2022/10/13 07:35:16;;;;;;;;;76.00;69.75;;;;;22.53;52.93;99978.38;5049578;28;9896;-71
2022/10/13 07:37:46;;;;;;;;;79.75;69.75;;;;;22.69;52.85;99981.25;5066473;28;9749;-73
2022/10/13 07:40:14;;;;;;;;;79.25;68.00;;;;;22.79;52.63;99977.22;5066412;28;10509;-75
2022/10/13 07:42:44;;;;;;;;;78.33;64.67;;;;;22.82;52.67;99981.56;5059359;28;9730;-77
2022/10/13 07:45:13;;;;;;;;;77.00;68.00;;;;;22.91;51.89;99987.34;5048910;28;9398;-75
2022/10/13 07:47:41;;;;;;;;;75.67;64.00;;;;;23.04;51.57;99981.50;5047059;28;9524;-78
2022/10/13 07:50:10;;;;;;;;;76.33;65.00;;;;;23.08;51.35;99983.97;5044784;28;9287;-75
2022/10/13 07:52:39;;;;;;;;;74.67;61.67;;;;;23.11;51.19;99982.94;5031309;28;9179;-76
2022/10/13 07:55:10;;;;;;;;;77.33;65.67;;;;;23.30;51.19;99989.13;5055515;28;9273;-75
2022/10/13 07:57:39;;;;;;;;;77.50;63.25;;;;;23.37;50.82;99981.75;5052477;28;9331;-73
2022/10/13 08:00:10;;;;;;;;;75.00;59.00;;;;;23.55;49.90;99978.25;5035371;28;9404;-78
2022/10/13 08:02:42;;;;;;;;;60.50;50.00;;;;;23.54;48.65;99978.31;5033332;28;10005;-75
2022/10/13 08:05:10;;;;;;;;;60.00;49.75;;;;;23.58;47.23;99974.56;5047464;28;8953;-77
2022/10/13 08:07:39;;;;;;;;;52.25;41.00;;;;;23.57;46.00;99969.28;5048905;28;8868;-72
2022/10/13 08:10:08;;;;;;;;;54.75;45.25;;;;;23.64;46.52;99971.59;5029917;28;8876;-75
2022/10/13 08:12:37;;;;;;;;;46.75;41.00;;;;;23.71;45.53;99967.69;5030770;28;8878;-75
2022/10/13 08:15:10;;;;;;;;;48.00;40.50;;;;;23.83;45.27;99974.25;5047268;28;8866;-75
2022/10/13 08:17:38;;;;;;;;;48.00;41.50;;;;;23.94;46.09;99968.41;4998056;28;8980;-74
2022/10/13 08:20:07;;;;;;;;;31.00;30.50;;;;;24.07;45.15;99974.88;5031018;28;8941;-74
2022/10/13 08:22:36;;;;;;;;;31.25;30.00;;;;;24.05;44.87;99970.56;4997662;28;9642;-74
2022/10/13 08:25:06;;;;;;;;;42.75;36.25;;;;;24.12;44.40;99969.28;5048515;28;8868;-74
2022/10/13 08:27:37;;;;;;;;;35.00;30.75;;;;;24.12;44.11;99971.97;5048887;28;8898;-78
2022/10/13 08:30:19;;;;;;;;;45.75;36.75;;;;;24.20;43.69;99967.13;5045165;28;8844;-78
2022/10/13 08:32:48;;;;;;;;;46.25;39.00;;;;;24.27;44.37;99963.22;5028374;28;8867;-78
2022/10/13 08:35:17;;;;;;;;;39.25;35.00;;;;;24.48;43.90;99963.03;5027607;28;8855;-78
2022/10/13 08:37:46;;;;;;;;;48.50;41.75;;;;;24.54;43.96;99970.78;5037278;28;8895;-78
2022/10/13 08:40:19;;;;;;;;;45.25;36.50;;;;;24.64;43.62;99960.50;5047644;28;8860;-80
2022/10/13 08:42:48;;;;;;;;;46.25;38.00;;;;;24.63;43.14;99964.97;5051622;28;8865;-77
2022/10/13 08:45:23;;;;;;;;;42.75;35.75;;;;;24.68;43.30;99957.56;5047572;28;8845;-78
2022/10/13 08:48:15;;;;;;;;;46.00;39.00;;;;;24.62;43.26;99951.72;5049085;28;8891;-76
2022/10/13 08:50:47;;;;;;;;;46.00;38.00;;;;;24.76;43.41;99959.84;5026439;28;8890;-78
2022/10/13 08:53:25;;;;;;;;;40.50;35.25;;;;;24.82;43.29;99953.31;5008936;28;8852;-77
2022/10/13 08:55:57;;;;;;;;;45.50;38.00;;;;;24.84;43.03;99954.09;5025266;28;8972;-76
2022/10/13 08:58:29;;;;;;;;;37.75;33.00;;;;;24.86;42.66;99961.09;5024458;28;8852;-75
2022/10/13 09:01:12;;;;;;;;;42.75;37.25;;;;;24.97;42.23;99956.97;5022046;28;9077;-78
2022/10/13 09:03:50;;;;;;;;;43.00;36.75;;;;;24.97;42.68;99960.53;5007899;28;8933;-77
2022/10/13 09:06:26;;;;;;;;;37.25;34.00;;;;;24.95;42.20;99962.38;5023926;28;8889;-78
2022/10/13 09:08:58;;;;;;;;;36.75;33.75;;;;;25.04;41.95;99964.56;5035416;28;8881;-77
2022/10/13 09:11:29;;;;;;;;;41.75;35.25;;;;;25.04;41.11;99961.91;5045611;28;8911;-77
2022/10/13 09:14:00;;;;;;;;;44.25;36.50;;;;;25.14;41.29;99961.41;5047472;28;9696;-76
2022/10/13 09:16:36;;;;;;;;;41.75;34.00;;;;;25.18;41.65;99957.63;5047199;28;8886;-78
2022/10/13 09:19:21;;;;;;;;;42.00;35.25;;;;;25.37;41.35;99957.50;5045905;28;8841;-77
2022/10/13 09:21:51;;;;;;;;;39.75;34.75;;;;;25.35;41.02;99960.28;5047619;28;8875;-69
2022/10/13 09:24:21;;;;;;;;;43.25;36.50;;;;;25.12;41.81;99963.28;5063918;28;9633;-70
2022/10/13 09:27:01;;;;;;;;;45.00;38.25;;;;;25.24;41.63;99963.53;5063845;28;8875;-71
2022/10/13 09:29:30;;;;;;;;;46.25;36.50;;;;;25.33;41.38;99967.50;5064322;28;8863;-71
2022/10/13 09:32:16;;;;;;;;;48.25;37.25;;;;;25.43;41.26;99960.69;5064140;28;8905;-68
2022/10/13 09:34:45;;;;;;;;;45.00;36.75;;;;;25.23;41.15;99955.59;5030763;28;8855;-70
2022/10/13 09:37:20;;;;;;;;;46.50;38.25;;;;;25.38;41.73;99953.91;5066296;28;9010;-69
2022/10/13 09:40:02;;;;;;;;;46.00;38.75;;;;;25.55;41.45;99948.47;5051323;28;8855;-73
2022/10/13 09:42:31;;;;;;;;;46.75;37.00;;;;;25.58;41.65;99942.97;5068043;28;8859;-71
2022/10/13 09:45:14;;;;;;;;;52.75;43.75;;;;;25.70;41.79;99935.19;5067888;28;8855;-70
2022/10/13 09:47:50;;;;;;;;;42.25;37.25;;;;;25.83;41.96;99941.56;5067619;28;8915;-70
2022/10/13 09:50:22;;;;;;;;;50.00;41.50;;;;;25.73;41.68;99938.56;5068104;28;8933;-69
2022/10/13 09:52:52;;;;;;;;;42.25;36.75;;;;;25.76;41.27;99935.69;5016120;28;8845;-71
2022/10/13 09:55:31;;;;;;;;;50.50;41.00;;;;;25.90;40.69;99937.59;5031761;28;8853;-71
2022/10/13 09:58:04;;;;;;;;;47.00;40.25;;;;;25.90;41.02;99937.59;5050164;28;9023;-71
2022/10/13 10:00:33;;;;;;;;;49.25;39.75;;;;;25.94;40.54;99932.97;5028359;28;8894;-71
2022/10/13 10:03:10;;;;;;;;;41.50;35.00;;;;;26.02;40.54;99923.53;5012382;28;8860;-69
2022/10/13 10:05:49;;;;;;;;;41.00;34.50;;;;;26.12;40.85;99921.19;5030818;28;8835;-70
2022/10/13 10:08:24;;;;;;;;;45.75;37.25;;;;;26.03;40.81;99917.25;5032436;28;8845;-68
2022/10/13 10:11:13;;;;;;;;;54.00;44.25;;;;;25.98;40.72;99918.47;5049289;28;9587;-70
2022/10/13 10:13:42;;;;;;;;;49.75;42.00;;;;;25.94;41.27;99914.25;5031633;28;8877;-68
2022/10/13 10:16:19;;;;;;;;;49.50;41.25;;;;;25.94;41.33;99917.78;5050674;28;8861;-71
2022/10/13 10:18:53;;;;;;;;;43.00;36.75;;;;;26.01;41.65;99907.59;5049878;28;8973;-70
2022/10/13 10:21:35;;;;;;;;;50.00;39.75;;;;;26.04;41.80;99908.25;5048362;28;8883;-70
2022/10/13 10:24:12;;;;;;;;;52.00;43.00;;;;;26.14;41.17;99911.25;5048410;28;8871;-69
2022/10/13 10:26:50;;;;;;;;;45.50;39.25;;;;;26.12;41.20;99905.13;5050023;28;8987;-69
2022/10/13 10:29:28;;;;;;;;;47.00;39.50;;;;;26.09;41.18;99893.75;5049598;28;9719;-69
2022/10/13 10:32:11;;;;;;;;;48.00;39.25;;;;;26.16;40.88;99893.34;5049428;28;9610;-67
2022/10/13 10:34:51;;;;;;;;;49.25;40.25;;;;;26.25;41.16;99891.91;5050928;28;8895;-71
2022/10/13 10:37:35;;;;;;;;;41.00;35.75;;;;;26.34;40.36;99887.81;5050953;28;8857;-70
2022/10/13 10:40:14;;;;;;;;;47.50;40.25;;;;;26.25;39.83;99883.88;5048720;28;8853;-68
2022/10/13 10:42:57;;;;;;;;;44.75;37.00;;;;;26.22;40.69;99890.28;5049752;28;8880;-70
2022/10/13 10:45:28;;;;;;;;;44.00;35.75;;;;;26.25;39.17;99884.72;5048819;28;8899;-69
2022/10/13 10:48:00;;;;;;;;;42.25;36.50;;;;;26.49;39.22;99883.38;5048630;28;8849;-68
2022/10/13 10:50:33;;;;;;;;;46.75;38.75;;;;;26.50;39.67;99877.88;5049010;28;8975;-68
2022/10/13 10:53:09;;;;;;;;;41.75;36.75;;;;;26.71;38.87;99881.13;5049039;28;8873;-69
2022/10/13 10:55:47;;;;;;;;;45.75;37.50;;;;;26.94;39.67;99873.47;5049127;28;8853;-71
2022/10/13 10:58:27;;;;;;;;;33.75;28.00;;;;;26.80;39.26;99875.16;5049107;28;8857;-70
2022/10/13 11:01:05;;;;;;;;;44.75;37.00;;;;;26.89;39.44;99872.88;5029649;28;8888;-70
2022/10/13 11:03:51;;;;;;;;;44.50;36.75;;;;;26.86;38.83;99875.75;5048315;28;8914;-70
2022/10/13 11:06:32;;;;;;;;;47.75;39.00;;;;;26.97;38.57;99876.78;5049048;28;9735;-71
2022/10/13 11:09:01;;;;;;;;;45.75;37.25;;;;;26.93;38.32;99871.72;5031095;28;8853;-71
2022/10/13 11:11:38;;;;;;;;;45.50;37.00;;;;;26.97;38.30;99862.53;5048588;28;8873;-74
2022/10/13 11:14:27;;;;;;;;;45.25;38.00;;;;;26.95;38.41;99848.41;5030175;28;8983;-72
2022/10/13 11:17:10;;;;;;;;;44.75;36.75;;;;;27.00;38.76;99852.50;5048884;28;8861;-69
2022/10/13 11:19:40;;;;;;;;;44.50;38.00;;;;;26.86;38.98;99854.34;5047700;28;8848;-70
2022/10/13 11:22:22;;;;;;;;;50.00;42.25;;;;;26.94;38.78;99844.03;5048779;28;8900;-72
2022/10/13 11:25:20;;;;;;;;;47.00;38.50;;;;;26.68;39.12;99846.50;5047402;28;8853;-69
2022/10/13 11:27:49;;;;;;;;;40.75;34.75;;;;;26.70;39.23;99841.06;5046762;28;8849;-71
2022/10/13 11:30:42;;;;;;;;;46.75;40.00;;;;;26.61;39.49;99837.16;5038113;28;8904;-71
2022/10/13 11:33:33;;;;;;;;;50.25;41.50;;;;;26.68;39.57;99830.47;5046964;28;8853;-70
2022/10/13 11:36:38;;;;;;;;;45.50;38.25;;;;;26.57;39.50;99825.75;5048281;28;8853;-71
2022/10/13 11:39:40;;;;;;;;;51.75;41.75;;;;;26.58;39.35;99821.28;5048939;28;8879;-71
2022/10/13 11:42:23;;;;;;;;;41.75;34.50;;;;;26.46;39.63;99812.19;5046106;28;8842;-69
2022/10/13 11:44:56;;;;;;;;;49.25;37.25;;;;;26.42;39.62;99810.66;5028380;28;8851;-71
2022/10/13 11:47:54;;;;;;;;;43.25;35.75;;;;;26.42;39.79;99806.16;5050859;28;8849;-69
2022/10/13 11:50:35;;;;;;;;;41.50;35.75;;;;;26.25;39.80;99801.84;5048394;28;8856;-69